sensor_id;sensor_type;location;lat;lon;timestamp;P1;durP1;ratioP1;P2;durP2;ratioP2
5085;SDS011;4715;51.660;7.082;2023-04-25T00:00:32;8.73;;;5.23;;
5085;SDS011;4715;51.660;7.082;2023-04-25T00:02:54;10.13;;;5.83;;
5085;SDS011;4715;51.660;7.082;2023-04-25T00:05:17;17.47;;;5.63;;
5085;SDS011;4715;51.660;7.082;2023-04-25T00:07:39;9.57;;;6.00;;
5085;SDS011;4715;51.660;7.082;2023-04-25T00:10:04;10.43;;;5.40;;
5085;SDS011;4715;51.660;7.082;2023-04-25T00:12:27;8.93;;;5.83;;
5085;SDS011;4715;51.660;7.082;2023-04-25T00:14:49;10.63;;;5.40;;
5085;SDS011;4715;51.660;7.082;2023-04-25T00:17:11;7.30;;;4.90;;
5085;SDS011;4715;51.660;7.082;2023-04-25T00:19:33;9.53;;;5.47;;
5085;SDS011;4715;51.660;7.082;2023-04-25T00:21:55;10.97;;;4.87;;
5085;SDS011;4715;51.660;7.082;2023-04-25T00:24:16;7.27;;;4.70;;
5085;SDS011;4715;51.660;7.082;2023-04-25T00:26:39;10.77;;;5.87;;
5085;SDS011;4715;51.660;7.082;2023-04-25T00:29:01;9.40;;;3.87;;
5085;SDS011;4715;51.660;7.082;2023-04-25T00:31:23;4.83;;;4.43;;
5085;SDS011;4715;51.660;7.082;2023-04-25T00:33:45;8.13;;;4.43;;
5085;SDS011;4715;51.660;7.082;2023-04-25T00:36:07;8.10;;;4.23;;
5085;SDS011;4715;51.660;7.082;2023-04-25T00:38:29;10.90;;;4.30;;
5085;SDS011;4715;51.660;7.082;2023-04-25T00:40:51;6.60;;;4.60;;
5085;SDS011;4715;51.660;7.082;2023-04-25T00:43:17;7.30;;;4.50;;
5085;SDS011;4715;51.660;7.082;2023-04-25T00:45:39;8.10;;;4.30;;
5085;SDS011;4715;51.660;7.082;2023-04-25T00:48:01;5.80;;;4.87;;
5085;SDS011;4715;51.660;7.082;2023-04-25T00:50:25;4.50;;;4.10;;
5085;SDS011;4715;51.660;7.082;2023-04-25T00:52:47;8.00;;;4.53;;
5085;SDS011;4715;51.660;7.082;2023-04-25T00:55:09;7.80;;;3.80;;
5085;SDS011;4715;51.660;7.082;2023-04-25T00:57:31;4.73;;;3.63;;
5085;SDS011;4715;51.660;7.082;2023-04-25T00:59:55;4.50;;;4.10;;
5085;SDS011;4715;51.660;7.082;2023-04-25T01:02:18;9.23;;;4.27;;
5085;SDS011;4715;51.660;7.082;2023-04-25T01:04:41;10.93;;;4.20;;
5085;SDS011;4715;51.660;7.082;2023-04-25T01:07:05;5.63;;;4.10;;
5085;SDS011;4715;51.660;7.082;2023-04-25T01:09:29;9.83;;;3.40;;
5085;SDS011;4715;51.660;7.082;2023-04-25T01:11:51;7.47;;;3.30;;
5085;SDS011;4715;51.660;7.082;2023-04-25T01:14:13;13.33;;;4.50;;
5085;SDS011;4715;51.660;7.082;2023-04-25T01:16:37;5.40;;;3.37;;
5085;SDS011;4715;51.660;7.082;2023-04-25T01:18:59;4.93;;;3.70;;
5085;SDS011;4715;51.660;7.082;2023-04-25T01:21:25;5.70;;;3.77;;
5085;SDS011;4715;51.660;7.082;2023-04-25T01:23:49;3.57;;;3.10;;
5085;SDS011;4715;51.660;7.082;2023-04-25T01:26:11;3.80;;;3.00;;
5085;SDS011;4715;51.660;7.082;2023-04-25T01:28:35;6.83;;;2.90;;
5085;SDS011;4715;51.660;7.082;2023-04-25T01:30:57;3.10;;;2.80;;
5085;SDS011;4715;51.660;7.082;2023-04-25T01:33:21;3.53;;;2.93;;
5085;SDS011;4715;51.660;7.082;2023-04-25T01:35:45;2.90;;;2.70;;
5085;SDS011;4715;51.660;7.082;2023-04-25T01:38:08;7.40;;;3.20;;
5085;SDS011;4715;51.660;7.082;2023-04-25T01:40:31;4.43;;;3.07;;
5085;SDS011;4715;51.660;7.082;2023-04-25T01:43:00;5.60;;;3.70;;
5085;SDS011;4715;51.660;7.082;2023-04-25T01:45:22;4.67;;;3.37;;
5085;SDS011;4715;51.660;7.082;2023-04-25T01:47:44;6.20;;;3.63;;
5085;SDS011;4715;51.660;7.082;2023-04-25T01:50:12;4.43;;;3.20;;
5085;SDS011;4715;51.660;7.082;2023-04-25T01:52:37;8.90;;;4.40;;
5085;SDS011;4715;51.660;7.082;2023-04-25T01:55:01;6.70;;;4.40;;
5085;SDS011;4715;51.660;7.082;2023-04-25T01:57:24;7.40;;;4.90;;
5085;SDS011;4715;51.660;7.082;2023-04-25T01:59:46;7.17;;;3.80;;
5085;SDS011;4715;51.660;7.082;2023-04-25T02:02:10;9.70;;;5.03;;
5085;SDS011;4715;51.660;7.082;2023-04-25T02:04:34;6.67;;;5.00;;
5085;SDS011;4715;51.660;7.082;2023-04-25T02:06:56;9.17;;;4.40;;
5085;SDS011;4715;51.660;7.082;2023-04-25T02:09:18;10.87;;;5.17;;
5085;SDS011;4715;51.660;7.082;2023-04-25T02:11:43;7.30;;;5.03;;
5085;SDS011;4715;51.660;7.082;2023-04-25T02:14:05;5.50;;;4.77;;
5085;SDS011;4715;51.660;7.082;2023-04-25T02:16:28;6.90;;;5.23;;
5085;SDS011;4715;51.660;7.082;2023-04-25T02:18:51;11.97;;;4.83;;
5085;SDS011;4715;51.660;7.082;2023-04-25T02:21:16;8.30;;;4.60;;
5085;SDS011;4715;51.660;7.082;2023-04-25T02:23:38;13.80;;;4.90;;
5085;SDS011;4715;51.660;7.082;2023-04-25T02:26:00;7.30;;;5.57;;
5085;SDS011;4715;51.660;7.082;2023-04-25T02:28:24;5.27;;;4.33;;
5085;SDS011;4715;51.660;7.082;2023-04-25T02:30:46;8.27;;;5.07;;
5085;SDS011;4715;51.660;7.082;2023-04-25T02:33:09;7.53;;;4.50;;
5085;SDS011;4715;51.660;7.082;2023-04-25T02:35:31;9.23;;;4.20;;
5085;SDS011;4715;51.660;7.082;2023-04-25T02:37:55;5.47;;;3.97;;
5085;SDS011;4715;51.660;7.082;2023-04-25T02:40:19;10.30;;;4.90;;
5085;SDS011;4715;51.660;7.082;2023-04-25T02:42:42;7.50;;;4.40;;
5085;SDS011;4715;51.660;7.082;2023-04-25T02:45:07;7.03;;;4.00;;
5085;SDS011;4715;51.660;7.082;2023-04-25T02:47:31;7.63;;;4.63;;
5085;SDS011;4715;51.660;7.082;2023-04-25T02:49:53;5.50;;;4.03;;
5085;SDS011;4715;51.660;7.082;2023-04-25T02:52:15;6.53;;;4.47;;
5085;SDS011;4715;51.660;7.082;2023-04-25T02:54:37;13.23;;;5.57;;
5085;SDS011;4715;51.660;7.082;2023-04-25T02:57:01;10.67;;;5.60;;
5085;SDS011;4715;51.660;7.082;2023-04-25T02:59:24;14.87;;;4.80;;
5085;SDS011;4715;51.660;7.082;2023-04-25T03:01:50;5.40;;;4.20;;
5085;SDS011;4715;51.660;7.082;2023-04-25T03:04:12;7.67;;;4.27;;
5085;SDS011;4715;51.660;7.082;2023-04-25T03:06:34;8.07;;;4.60;;
5085;SDS011;4715;51.660;7.082;2023-04-25T03:08:56;4.53;;;4.03;;
5085;SDS011;4715;51.660;7.082;2023-04-25T03:11:18;4.73;;;3.97;;
5085;SDS011;4715;51.660;7.082;2023-04-25T03:13:40;6.87;;;4.50;;
5085;SDS011;4715;51.660;7.082;2023-04-25T03:16:06;14.07;;;4.67;;
5085;SDS011;4715;51.660;7.082;2023-04-25T03:18:29;5.00;;;4.00;;
5085;SDS011;4715;51.660;7.082;2023-04-25T03:20:51;8.87;;;3.27;;
5085;SDS011;4715;51.660;7.082;2023-04-25T03:23:13;5.00;;;3.70;;
5085;SDS011;4715;51.660;7.082;2023-04-25T03:25:37;4.43;;;3.87;;
5085;SDS011;4715;51.660;7.082;2023-04-25T03:27:59;3.20;;;3.00;;
5085;SDS011;4715;51.660;7.082;2023-04-25T03:30:23;4.83;;;3.43;;
5085;SDS011;4715;51.660;7.082;2023-04-25T03:32:44;5.43;;;3.23;;
5085;SDS011;4715;51.660;7.082;2023-04-25T03:35:08;2.70;;;2.47;;
5085;SDS011;4715;51.660;7.082;2023-04-25T03:37:30;4.43;;;2.50;;
5085;SDS011;4715;51.660;7.082;2023-04-25T03:39:53;4.10;;;2.60;;
5085;SDS011;4715;51.660;7.082;2023-04-25T03:42:15;4.33;;;2.20;;
5085;SDS011;4715;51.660;7.082;2023-04-25T03:44:37;7.03;;;3.23;;
5085;SDS011;4715;51.660;7.082;2023-04-25T03:46:59;2.60;;;2.00;;
5085;SDS011;4715;51.660;7.082;2023-04-25T03:49:21;3.60;;;2.80;;
5085;SDS011;4715;51.660;7.082;2023-04-25T03:51:44;4.03;;;2.70;;
5085;SDS011;4715;51.660;7.082;2023-04-25T03:54:06;2.30;;;2.07;;
5085;SDS011;4715;51.660;7.082;2023-04-25T03:56:28;2.17;;;1.90;;
5085;SDS011;4715;51.660;7.082;2023-04-25T03:58:50;5.70;;;2.00;;
5085;SDS011;4715;51.660;7.082;2023-04-25T04:01:12;6.40;;;2.40;;
5085;SDS011;4715;51.660;7.082;2023-04-25T04:03:34;4.10;;;1.90;;
5085;SDS011;4715;51.660;7.082;2023-04-25T04:05:56;3.33;;;2.20;;
5085;SDS011;4715;51.660;7.082;2023-04-25T04:08:20;3.87;;;2.13;;
5085;SDS011;4715;51.660;7.082;2023-04-25T04:10:42;4.83;;;2.30;;
5085;SDS011;4715;51.660;7.082;2023-04-25T04:13:04;8.33;;;3.03;;
5085;SDS011;4715;51.660;7.082;2023-04-25T04:15:26;3.37;;;2.30;;
5085;SDS011;4715;51.660;7.082;2023-04-25T04:17:48;1.90;;;1.80;;
5085;SDS011;4715;51.660;7.082;2023-04-25T04:20:10;4.33;;;2.80;;
5085;SDS011;4715;51.660;7.082;2023-04-25T04:22:32;3.30;;;2.37;;
5085;SDS011;4715;51.660;7.082;2023-04-25T04:24:55;2.40;;;1.87;;
5085;SDS011;4715;51.660;7.082;2023-04-25T04:27:17;3.10;;;2.53;;
5085;SDS011;4715;51.660;7.082;2023-04-25T04:29:40;2.40;;;2.20;;
5085;SDS011;4715;51.660;7.082;2023-04-25T04:32:01;6.07;;;3.10;;
5085;SDS011;4715;51.660;7.082;2023-04-25T04:34:24;6.20;;;2.90;;
5085;SDS011;4715;51.660;7.082;2023-04-25T04:36:47;6.90;;;2.93;;
5085;SDS011;4715;51.660;7.082;2023-04-25T04:39:09;3.43;;;2.40;;
5085;SDS011;4715;51.660;7.082;2023-04-25T04:41:33;6.80;;;2.97;;
5085;SDS011;4715;51.660;7.082;2023-04-25T04:43:54;2.90;;;2.10;;
5085;SDS011;4715;51.660;7.082;2023-04-25T04:46:16;2.37;;;2.17;;
5085;SDS011;4715;51.660;7.082;2023-04-25T04:48:38;3.27;;;2.73;;
5085;SDS011;4715;51.660;7.082;2023-04-25T04:51:00;4.90;;;2.73;;
5085;SDS011;4715;51.660;7.082;2023-04-25T04:53:22;7.63;;;2.40;;
5085;SDS011;4715;51.660;7.082;2023-04-25T04:55:44;7.30;;;3.23;;
5085;SDS011;4715;51.660;7.082;2023-04-25T04:58:07;2.80;;;2.40;;
5085;SDS011;4715;51.660;7.082;2023-04-25T05:00:30;2.57;;;2.37;;
5085;SDS011;4715;51.660;7.082;2023-04-25T05:02:52;2.30;;;2.10;;
5085;SDS011;4715;51.660;7.082;2023-04-25T05:05:13;3.27;;;2.47;;
5085;SDS011;4715;51.660;7.082;2023-04-25T05:07:35;3.73;;;2.30;;
5085;SDS011;4715;51.660;7.082;2023-04-25T05:09:58;4.60;;;2.47;;
5085;SDS011;4715;51.660;7.082;2023-04-25T05:12:20;9.17;;;3.10;;
5085;SDS011;4715;51.660;7.082;2023-04-25T05:14:44;2.47;;;2.27;;
5085;SDS011;4715;51.660;7.082;2023-04-25T05:17:05;6.30;;;4.13;;
5085;SDS011;4715;51.660;7.082;2023-04-25T05:19:29;4.40;;;2.40;;
5085;SDS011;4715;51.660;7.082;2023-04-25T05:21:51;4.60;;;2.87;;
5085;SDS011;4715;51.660;7.082;2023-04-25T05:24:13;4.80;;;2.97;;
5085;SDS011;4715;51.660;7.082;2023-04-25T05:26:35;8.83;;;3.30;;
5085;SDS011;4715;51.660;7.082;2023-04-25T05:28:56;6.03;;;2.97;;
5085;SDS011;4715;51.660;7.082;2023-04-25T05:31:20;3.53;;;3.23;;
5085;SDS011;4715;51.660;7.082;2023-04-25T05:33:41;4.37;;;3.10;;
5085;SDS011;4715;51.660;7.082;2023-04-25T05:36:03;4.50;;;3.10;;
5085;SDS011;4715;51.660;7.082;2023-04-25T05:38:26;6.57;;;3.20;;
5085;SDS011;4715;51.660;7.082;2023-04-25T05:40:48;10.57;;;3.90;;
5085;SDS011;4715;51.660;7.082;2023-04-25T05:43:10;7.77;;;3.50;;
5085;SDS011;4715;51.660;7.082;2023-04-25T05:45:31;4.83;;;3.90;;
5085;SDS011;4715;51.660;7.082;2023-04-25T05:47:55;7.83;;;3.67;;
5085;SDS011;4715;51.660;7.082;2023-04-25T05:50:16;6.70;;;3.83;;
5085;SDS011;4715;51.660;7.082;2023-04-25T05:52:40;4.87;;;3.20;;
5085;SDS011;4715;51.660;7.082;2023-04-25T05:55:04;8.50;;;3.93;;
5085;SDS011;4715;51.660;7.082;2023-04-25T05:57:28;12.23;;;4.53;;
5085;SDS011;4715;51.660;7.082;2023-04-25T05:59:50;8.27;;;5.00;;
5085;SDS011;4715;51.660;7.082;2023-04-25T06:02:11;7.40;;;4.17;;
5085;SDS011;4715;51.660;7.082;2023-04-25T06:04:35;7.70;;;3.67;;
5085;SDS011;4715;51.660;7.082;2023-04-25T06:06:56;10.53;;;4.50;;
5085;SDS011;4715;51.660;7.082;2023-04-25T06:09:19;4.57;;;3.13;;
5085;SDS011;4715;51.660;7.082;2023-04-25T06:11:41;5.83;;;3.27;;
5085;SDS011;4715;51.660;7.082;2023-04-25T06:14:03;7.23;;;4.50;;
5085;SDS011;4715;51.660;7.082;2023-04-25T06:16:24;5.93;;;2.77;;
5085;SDS011;4715;51.660;7.082;2023-04-25T06:18:49;4.10;;;3.63;;
5085;SDS011;4715;51.660;7.082;2023-04-25T06:21:12;7.33;;;3.63;;
5085;SDS011;4715;51.660;7.082;2023-04-25T06:23:34;10.63;;;3.92;;
5085;SDS011;4715;51.660;7.082;2023-04-25T06:25:56;9.13;;;3.87;;
5085;SDS011;4715;51.660;7.082;2023-04-25T06:28:17;8.80;;;4.43;;
5085;SDS011;4715;51.660;7.082;2023-04-25T06:30:42;13.73;;;5.47;;
5085;SDS011;4715;51.660;7.082;2023-04-25T06:33:04;6.17;;;3.70;;
5085;SDS011;4715;51.660;7.082;2023-04-25T06:35:25;3.30;;;3.07;;
5085;SDS011;4715;51.660;7.082;2023-04-25T06:37:49;7.93;;;3.47;;
5085;SDS011;4715;51.660;7.082;2023-04-25T06:40:10;4.87;;;3.60;;
5085;SDS011;4715;51.660;7.082;2023-04-25T06:42:32;10.10;;;4.40;;
5085;SDS011;4715;51.660;7.082;2023-04-25T06:44:54;7.30;;;4.57;;
5085;SDS011;4715;51.660;7.082;2023-04-25T06:47:17;5.70;;;3.87;;
5085;SDS011;4715;51.660;7.082;2023-04-25T06:49:38;5.73;;;4.00;;
5085;SDS011;4715;51.660;7.082;2023-04-25T06:52:00;5.30;;;3.90;;
5085;SDS011;4715;51.660;7.082;2023-04-25T06:54:24;3.77;;;2.97;;
5085;SDS011;4715;51.660;7.082;2023-04-25T06:56:47;8.63;;;3.40;;
5085;SDS011;4715;51.660;7.082;2023-04-25T06:59:09;6.17;;;3.43;;
5085;SDS011;4715;51.660;7.082;2023-04-25T07:01:31;5.30;;;3.13;;
5085;SDS011;4715;51.660;7.082;2023-04-25T07:03:55;5.83;;;2.87;;
5085;SDS011;4715;51.660;7.082;2023-04-25T07:06:17;3.00;;;2.80;;
5085;SDS011;4715;51.660;7.082;2023-04-25T07:08:39;5.33;;;3.87;;
5085;SDS011;4715;51.660;7.082;2023-04-25T07:11:04;9.40;;;3.50;;
5085;SDS011;4715;51.660;7.082;2023-04-25T07:13:26;5.07;;;3.17;;
5085;SDS011;4715;51.660;7.082;2023-04-25T07:18:38;4.20;;;3.23;;
5085;SDS011;4715;51.660;7.082;2023-04-25T07:21:00;8.70;;;3.13;;
5085;SDS011;4715;51.660;7.082;2023-04-25T07:23:22;5.83;;;3.30;;
5085;SDS011;4715;51.660;7.082;2023-04-25T07:25:44;3.97;;;2.53;;
5085;SDS011;4715;51.660;7.082;2023-04-25T07:28:10;5.67;;;2.53;;
5085;SDS011;4715;51.660;7.082;2023-04-25T07:30:45;3.70;;;2.50;;
5085;SDS011;4715;51.660;7.082;2023-04-25T07:33:07;5.70;;;2.63;;
5085;SDS011;4715;51.660;7.082;2023-04-25T07:35:29;5.93;;;2.80;;
5085;SDS011;4715;51.660;7.082;2023-04-25T07:37:50;5.00;;;2.50;;
5085;SDS011;4715;51.660;7.082;2023-04-25T07:40:12;3.97;;;2.67;;
5085;SDS011;4715;51.660;7.082;2023-04-25T07:42:35;2.97;;;2.57;;
5085;SDS011;4715;51.660;7.082;2023-04-25T07:45:05;5.10;;;3.60;;
5085;SDS011;4715;51.660;7.082;2023-04-25T07:47:28;2.50;;;2.23;;
5085;SDS011;4715;51.660;7.082;2023-04-25T07:50:03;7.83;;;3.23;;
5085;SDS011;4715;51.660;7.082;2023-04-25T07:52:30;6.93;;;2.87;;
5085;SDS011;4715;51.660;7.082;2023-04-25T07:54:55;7.17;;;2.67;;
5085;SDS011;4715;51.660;7.082;2023-04-25T07:57:20;3.90;;;2.40;;
5085;SDS011;4715;51.660;7.082;2023-04-25T07:59:44;3.40;;;2.00;;
5085;SDS011;4715;51.660;7.082;2023-04-25T08:02:15;13.20;;;2.20;;
5085;SDS011;4715;51.660;7.082;2023-04-25T08:04:49;6.10;;;2.10;;
5085;SDS011;4715;51.660;7.082;2023-04-25T08:07:15;3.97;;;2.30;;
5085;SDS011;4715;51.660;7.082;2023-04-25T08:09:37;1.97;;;1.83;;
5085;SDS011;4715;51.660;7.082;2023-04-25T08:11:59;2.83;;;1.70;;
5085;SDS011;4715;51.660;7.082;2023-04-25T08:14:22;3.73;;;2.03;;
5085;SDS011;4715;51.660;7.082;2023-04-25T08:16:47;5.57;;;2.33;;
5085;SDS011;4715;51.660;7.082;2023-04-25T08:19:10;4.83;;;2.27;;
5085;SDS011;4715;51.660;7.082;2023-04-25T08:21:32;7.77;;;2.00;;
5085;SDS011;4715;51.660;7.082;2023-04-25T08:23:54;3.50;;;2.30;;
5085;SDS011;4715;51.660;7.082;2023-04-25T08:26:17;9.30;;;2.20;;
5085;SDS011;4715;51.660;7.082;2023-04-25T08:28:39;4.10;;;1.80;;
5085;SDS011;4715;51.660;7.082;2023-04-25T08:31:01;2.40;;;1.83;;
5085;SDS011;4715;51.660;7.082;2023-04-25T08:33:23;7.03;;;2.70;;
5085;SDS011;4715;51.660;7.082;2023-04-25T08:35:46;6.33;;;2.00;;
5085;SDS011;4715;51.660;7.082;2023-04-25T08:38:08;9.27;;;4.07;;
5085;SDS011;4715;51.660;7.082;2023-04-25T08:40:30;7.17;;;2.60;;
5085;SDS011;4715;51.660;7.082;2023-04-25T08:42:58;4.33;;;2.23;;
5085;SDS011;4715;51.660;7.082;2023-04-25T08:45:23;7.07;;;2.77;;
5085;SDS011;4715;51.660;7.082;2023-04-25T08:47:47;9.10;;;2.70;;
5085;SDS011;4715;51.660;7.082;2023-04-25T08:50:11;4.50;;;2.03;;
5085;SDS011;4715;51.660;7.082;2023-04-25T08:52:37;5.30;;;2.90;;
5085;SDS011;4715;51.660;7.082;2023-04-25T08:55:04;6.13;;;2.10;;
5085;SDS011;4715;51.660;7.082;2023-04-25T08:57:28;3.00;;;1.93;;
5085;SDS011;4715;51.660;7.082;2023-04-25T08:59:53;4.13;;;3.23;;
5085;SDS011;4715;51.660;7.082;2023-04-25T09:02:18;5.13;;;2.27;;
5085;SDS011;4715;51.660;7.082;2023-04-25T09:04:42;3.63;;;1.70;;
5085;SDS011;4715;51.660;7.082;2023-04-25T09:07:04;2.00;;;1.80;;
5085;SDS011;4715;51.660;7.082;2023-04-25T09:09:27;7.47;;;2.83;;
5085;SDS011;4715;51.660;7.082;2023-04-25T09:11:53;3.20;;;1.67;;
5085;SDS011;4715;51.660;7.082;2023-04-25T09:14:20;2.30;;;2.10;;
5085;SDS011;4715;51.660;7.082;2023-04-25T09:16:58;14.30;;;2.07;;
5085;SDS011;4715;51.660;7.082;2023-04-25T09:19:21;2.83;;;1.80;;
5085;SDS011;4715;51.660;7.082;2023-04-25T09:21:48;4.90;;;2.03;;
5085;SDS011;4715;51.660;7.082;2023-04-25T09:24:10;4.37;;;1.93;;
5085;SDS011;4715;51.660;7.082;2023-04-25T09:26:34;2.33;;;1.40;;
5085;SDS011;4715;51.660;7.082;2023-04-25T09:29:04;2.90;;;1.97;;
5085;SDS011;4715;51.660;7.082;2023-04-25T09:31:29;2.73;;;1.90;;
5085;SDS011;4715;51.660;7.082;2023-04-25T09:33:58;2.90;;;1.60;;
5085;SDS011;4715;51.660;7.082;2023-04-25T09:36:23;3.53;;;1.60;;
5085;SDS011;4715;51.660;7.082;2023-04-25T09:38:48;1.97;;;1.30;;
5085;SDS011;4715;51.660;7.082;2023-04-25T09:41:10;6.70;;;1.80;;
5085;SDS011;4715;51.660;7.082;2023-04-25T09:43:34;3.53;;;1.70;;
5085;SDS011;4715;51.660;7.082;2023-04-25T09:45:56;4.60;;;1.63;;
5085;SDS011;4715;51.660;7.082;2023-04-25T09:48:19;3.80;;;1.50;;
5085;SDS011;4715;51.660;7.082;2023-04-25T09:50:42;3.30;;;1.47;;
5085;SDS011;4715;51.660;7.082;2023-04-25T09:53:07;2.60;;;1.40;;
5085;SDS011;4715;51.660;7.082;2023-04-25T09:55:28;3.40;;;1.53;;
5085;SDS011;4715;51.660;7.082;2023-04-25T09:57:51;4.10;;;1.50;;
5085;SDS011;4715;51.660;7.082;2023-04-25T10:00:17;3.60;;;1.60;;
5085;SDS011;4715;51.660;7.082;2023-04-25T10:02:42;4.00;;;1.57;;
5085;SDS011;4715;51.660;7.082;2023-04-25T10:05:08;2.13;;;1.70;;
5085;SDS011;4715;51.660;7.082;2023-04-25T10:07:31;6.27;;;2.23;;
5085;SDS011;4715;51.660;7.082;2023-04-25T10:09:58;2.60;;;1.50;;
5085;SDS011;4715;51.660;7.082;2023-04-25T10:12:22;2.70;;;1.30;;
5085;SDS011;4715;51.660;7.082;2023-04-25T10:14:44;3.07;;;1.20;;
5085;SDS011;4715;51.660;7.082;2023-04-25T10:17:09;3.03;;;2.40;;
5085;SDS011;4715;51.660;7.082;2023-04-25T10:19:32;1.57;;;1.30;;
5085;SDS011;4715;51.660;7.082;2023-04-25T10:21:56;1.80;;;1.10;;
5085;SDS011;4715;51.660;7.082;2023-04-25T10:24:24;2.10;;;1.50;;
5085;SDS011;4715;51.660;7.082;2023-04-25T10:26:59;6.47;;;1.70;;
5085;SDS011;4715;51.660;7.082;2023-04-25T10:29:23;4.33;;;1.47;;
5085;SDS011;4715;51.660;7.082;2023-04-25T10:31:46;3.27;;;1.83;;
5085;SDS011;4715;51.660;7.082;2023-04-25T10:34:10;1.50;;;1.40;;
5085;SDS011;4715;51.660;7.082;2023-04-25T10:36:32;6.40;;;1.57;;
5085;SDS011;4715;51.660;7.082;2023-04-25T10:38:54;5.73;;;2.00;;
5085;SDS011;4715;51.660;7.082;2023-04-25T10:41:18;1.63;;;1.50;;
5085;SDS011;4715;51.660;7.082;2023-04-25T10:43:43;5.40;;;1.50;;
5085;SDS011;4715;51.660;7.082;2023-04-25T10:46:15;1.80;;;1.70;;
5085;SDS011;4715;51.660;7.082;2023-04-25T10:48:38;1.83;;;1.47;;
5085;SDS011;4715;51.660;7.082;2023-04-25T10:51:08;6.23;;;1.60;;
5085;SDS011;4715;51.660;7.082;2023-04-25T10:53:30;1.90;;;1.00;;
5085;SDS011;4715;51.660;7.082;2023-04-25T10:55:54;1.43;;;1.33;;
5085;SDS011;4715;51.660;7.082;2023-04-25T10:58:20;2.90;;;1.40;;
5085;SDS011;4715;51.660;7.082;2023-04-25T11:00:43;1.80;;;1.30;;
5085;SDS011;4715;51.660;7.082;2023-04-25T11:03:05;3.60;;;1.87;;
5085;SDS011;4715;51.660;7.082;2023-04-25T11:05:30;1.87;;;1.57;;
5085;SDS011;4715;51.660;7.082;2023-04-25T11:07:56;4.67;;;1.60;;
5085;SDS011;4715;51.660;7.082;2023-04-25T11:10:21;4.10;;;2.43;;
5085;SDS011;4715;51.660;7.082;2023-04-25T11:12:48;1.63;;;1.10;;
5085;SDS011;4715;51.660;7.082;2023-04-25T11:15:10;2.47;;;1.30;;
5085;SDS011;4715;51.660;7.082;2023-04-25T11:17:32;1.53;;;1.27;;
5085;SDS011;4715;51.660;7.082;2023-04-25T11:19:55;1.80;;;1.27;;
5085;SDS011;4715;51.660;7.082;2023-04-25T11:22:17;1.83;;;1.27;;
5085;SDS011;4715;51.660;7.082;2023-04-25T11:24:41;2.13;;;1.00;;
5085;SDS011;4715;51.660;7.082;2023-04-25T11:27:03;1.00;;;0.90;;
5085;SDS011;4715;51.660;7.082;2023-04-25T11:29:26;1.40;;;0.97;;
5085;SDS011;4715;51.660;7.082;2023-04-25T11:31:49;1.00;;;1.00;;
5085;SDS011;4715;51.660;7.082;2023-04-25T11:34:12;1.33;;;0.97;;
5085;SDS011;4715;51.660;7.082;2023-04-25T11:36:38;1.10;;;1.07;;
5085;SDS011;4715;51.660;7.082;2023-04-25T11:39:00;4.40;;;1.67;;
5085;SDS011;4715;51.660;7.082;2023-04-25T11:41:24;4.80;;;1.30;;
5085;SDS011;4715;51.660;7.082;2023-04-25T11:43:47;3.77;;;1.27;;
5085;SDS011;4715;51.660;7.082;2023-04-25T11:46:09;1.77;;;0.90;;
5085;SDS011;4715;51.660;7.082;2023-04-25T11:48:36;2.80;;;1.10;;
5085;SDS011;4715;51.660;7.082;2023-04-25T11:50:59;2.30;;;1.47;;
5085;SDS011;4715;51.660;7.082;2023-04-25T11:53:22;1.57;;;1.30;;
5085;SDS011;4715;51.660;7.082;2023-04-25T11:55:45;2.13;;;1.60;;
5085;SDS011;4715;51.660;7.082;2023-04-25T11:58:09;1.40;;;1.30;;
5085;SDS011;4715;51.660;7.082;2023-04-25T12:00:33;4.47;;;1.90;;
5085;SDS011;4715;51.660;7.082;2023-04-25T12:02:56;1.77;;;1.10;;
5085;SDS011;4715;51.660;7.082;2023-04-25T12:05:18;1.90;;;1.33;;
5085;SDS011;4715;51.660;7.082;2023-04-25T12:07:41;2.37;;;1.20;;
5085;SDS011;4715;51.660;7.082;2023-04-25T12:10:06;3.13;;;1.40;;
5085;SDS011;4715;51.660;7.082;2023-04-25T12:12:32;3.53;;;1.53;;
5085;SDS011;4715;51.660;7.082;2023-04-25T12:14:56;2.67;;;1.50;;
5085;SDS011;4715;51.660;7.082;2023-04-25T12:17:20;2.07;;;1.30;;
5085;SDS011;4715;51.660;7.082;2023-04-25T12:19:46;1.03;;;0.90;;
5085;SDS011;4715;51.660;7.082;2023-04-25T12:22:18;2.23;;;1.53;;
5085;SDS011;4715;51.660;7.082;2023-04-25T12:24:44;2.23;;;1.00;;
5085;SDS011;4715;51.660;7.082;2023-04-25T12:27:06;2.00;;;1.00;;
5085;SDS011;4715;51.660;7.082;2023-04-25T12:29:29;6.23;;;0.97;;
5085;SDS011;4715;51.660;7.082;2023-04-25T12:31:55;1.10;;;0.90;;
5085;SDS011;4715;51.660;7.082;2023-04-25T12:34:18;1.23;;;1.10;;
5085;SDS011;4715;51.660;7.082;2023-04-25T12:36:40;1.13;;;1.03;;
5085;SDS011;4715;51.660;7.082;2023-04-25T12:39:02;1.30;;;1.20;;
5085;SDS011;4715;51.660;7.082;2023-04-25T12:41:24;3.37;;;1.40;;
5085;SDS011;4715;51.660;7.082;2023-04-25T12:43:46;1.13;;;1.07;;
5085;SDS011;4715;51.660;7.082;2023-04-25T12:46:08;1.00;;;0.90;;
5085;SDS011;4715;51.660;7.082;2023-04-25T12:48:31;2.23;;;1.43;;
5085;SDS011;4715;51.660;7.082;2023-04-25T12:50:53;1.97;;;1.20;;
5085;SDS011;4715;51.660;7.082;2023-04-25T12:53:16;2.83;;;1.30;;
5085;SDS011;4715;51.660;7.082;2023-04-25T12:55:39;5.33;;;1.50;;
5085;SDS011;4715;51.660;7.082;2023-04-25T12:58:01;5.50;;;1.40;;
5085;SDS011;4715;51.660;7.082;2023-04-25T13:00:23;2.10;;;1.53;;
5085;SDS011;4715;51.660;7.082;2023-04-25T13:02:46;1.70;;;1.60;;
5085;SDS011;4715;51.660;7.082;2023-04-25T13:05:09;3.07;;;1.40;;
5085;SDS011;4715;51.660;7.082;2023-04-25T13:07:31;1.40;;;1.30;;
5085;SDS011;4715;51.660;7.082;2023-04-25T13:09:53;2.80;;;1.40;;
5085;SDS011;4715;51.660;7.082;2023-04-25T13:12:22;4.10;;;1.50;;
5085;SDS011;4715;51.660;7.082;2023-04-25T13:14:45;1.93;;;1.27;;
5085;SDS011;4715;51.660;7.082;2023-04-25T13:17:07;1.90;;;1.10;;
5085;SDS011;4715;51.660;7.082;2023-04-25T13:19:28;1.50;;;0.93;;
5085;SDS011;4715;51.660;7.082;2023-04-25T13:21:52;4.47;;;1.47;;
5085;SDS011;4715;51.660;7.082;2023-04-25T13:24:14;1.10;;;1.00;;
5085;SDS011;4715;51.660;7.082;2023-04-25T13:26:36;3.23;;;1.00;;
5085;SDS011;4715;51.660;7.082;2023-04-25T13:28:58;1.17;;;1.07;;
5085;SDS011;4715;51.660;7.082;2023-04-25T13:31:23;2.53;;;1.10;;
5085;SDS011;4715;51.660;7.082;2023-04-25T13:33:45;3.07;;;1.33;;
5085;SDS011;4715;51.660;7.082;2023-04-25T13:36:13;1.93;;;1.33;;
5085;SDS011;4715;51.660;7.082;2023-04-25T13:38:43;1.90;;;1.10;;
5085;SDS011;4715;51.660;7.082;2023-04-25T13:41:07;1.00;;;0.90;;
5085;SDS011;4715;51.660;7.082;2023-04-25T13:43:33;1.90;;;1.00;;
5085;SDS011;4715;51.660;7.082;2023-04-25T13:45:56;4.30;;;1.17;;
5085;SDS011;4715;51.660;7.082;2023-04-25T13:48:22;3.47;;;0.90;;
5085;SDS011;4715;51.660;7.082;2023-04-25T13:50:45;3.13;;;1.30;;
5085;SDS011;4715;51.660;7.082;2023-04-25T13:53:09;2.60;;;1.30;;
5085;SDS011;4715;51.660;7.082;2023-04-25T13:55:34;1.20;;;1.03;;
5085;SDS011;4715;51.660;7.082;2023-04-25T13:58:03;1.50;;;0.93;;
5085;SDS011;4715;51.660;7.082;2023-04-25T14:00:27;2.20;;;0.90;;
5085;SDS011;4715;51.660;7.082;2023-04-25T14:02:51;3.57;;;1.20;;
5085;SDS011;4715;51.660;7.082;2023-04-25T14:05:13;0.80;;;0.80;;
5085;SDS011;4715;51.660;7.082;2023-04-25T14:07:40;1.10;;;1.00;;
5085;SDS011;4715;51.660;7.082;2023-04-25T14:10:16;1.03;;;1.03;;
5085;SDS011;4715;51.660;7.082;2023-04-25T14:12:41;2.40;;;1.10;;
5085;SDS011;4715;51.660;7.082;2023-04-25T14:15:03;1.70;;;1.00;;
5085;SDS011;4715;51.660;7.082;2023-04-25T14:17:32;1.03;;;1.00;;
5085;SDS011;4715;51.660;7.082;2023-04-25T14:19:55;1.43;;;1.00;;
5085;SDS011;4715;51.660;7.082;2023-04-25T14:22:17;0.80;;;0.80;;
5085;SDS011;4715;51.660;7.082;2023-04-25T14:24:39;1.40;;;1.30;;
5085;SDS011;4715;51.660;7.082;2023-04-25T14:27:02;2.87;;;1.10;;
5085;SDS011;4715;51.660;7.082;2023-04-25T14:29:27;1.20;;;1.13;;
5085;SDS011;4715;51.660;7.082;2023-04-25T14:31:50;2.50;;;1.50;;
5085;SDS011;4715;51.660;7.082;2023-04-25T14:34:21;2.17;;;1.30;;
5085;SDS011;4715;51.660;7.082;2023-04-25T14:36:43;1.73;;;1.57;;
5085;SDS011;4715;51.660;7.082;2023-04-25T14:39:05;1.30;;;1.20;;
5085;SDS011;4715;51.660;7.082;2023-04-25T14:41:27;0.93;;;0.93;;
5085;SDS011;4715;51.660;7.082;2023-04-25T14:43:50;1.37;;;1.20;;
5085;SDS011;4715;51.660;7.082;2023-04-25T14:46:21;2.00;;;1.60;;
5085;SDS011;4715;51.660;7.082;2023-04-25T14:48:52;1.83;;;1.30;;
5085;SDS011;4715;51.660;7.082;2023-04-25T14:51:35;3.20;;;1.90;;
5085;SDS011;4715;51.660;7.082;2023-04-25T14:53:58;2.20;;;1.37;;